sensor_id;sensor_type;location;lat;lon;timestamp;temperature;humidity
8896;DHT22;4484;48.928;10.066;2023-04-03T00:00:54;1.80;99.90
8896;DHT22;4484;48.928;10.066;2023-04-03T00:03:20;1.80;99.90
8896;DHT22;4484;48.928;10.066;2023-04-03T00:05:47;1.70;99.90
8896;DHT22;4484;48.928;10.066;2023-04-03T00:08:14;1.70;99.90
8896;DHT22;4484;48.928;10.066;2023-04-03T00:10:41;1.70;99.90
8896;DHT22;4484;48.928;10.066;2023-04-03T00:13:09;1.70;99.90
8896;DHT22;4484;48.928;10.066;2023-04-03T00:15:36;1.70;99.90
8896;DHT22;4484;48.928;10.066;2023-04-03T00:18:03;1.70;99.90
8896;DHT22;4484;48.928;10.066;2023-04-03T00:20:31;1.70;99.90
8896;DHT22;4484;48.928;10.066;2023-04-03T00:22:58;1.70;99.90
8896;DHT22;4484;48.928;10.066;2023-04-03T00:25:25;1.70;99.90
8896;DHT22;4484;48.928;10.066;2023-04-03T00:27:52;1.70;99.90
8896;DHT22;4484;48.928;10.066;2023-04-03T00:30:21;1.70;99.90
8896;DHT22;4484;48.928;10.066;2023-04-03T00:32:49;1.70;99.90
8896;DHT22;4484;48.928;10.066;2023-04-03T00:35:17;1.70;99.90
8896;DHT22;4484;48.928;10.066;2023-04-03T00:37:46;1.70;99.90
8896;DHT22;4484;48.928;10.066;2023-04-03T00:40:14;1.70;99.90
8896;DHT22;4484;48.928;10.066;2023-04-03T00:42:43;1.60;99.90
8896;DHT22;4484;48.928;10.066;2023-04-03T00:48:00;1.60;99.90
8896;DHT22;4484;48.928;10.066;2023-04-03T00:50:29;1.60;99.90
8896;DHT22;4484;48.928;10.066;2023-04-03T00:52:57;1.60;99.90
8896;DHT22;4484;48.928;10.066;2023-04-03T00:55:24;1.60;99.90
8896;DHT22;4484;48.928;10.066;2023-04-03T00:57:52;1.60;99.90
8896;DHT22;4484;48.928;10.066;2023-04-03T01:00:20;1.60;99.90
8896;DHT22;4484;48.928;10.066;2023-04-03T01:02:50;1.60;99.90
8896;DHT22;4484;48.928;10.066;2023-04-03T01:05:19;1.60;99.90
8896;DHT22;4484;48.928;10.066;2023-04-03T01:07:48;1.60;99.90
8896;DHT22;4484;48.928;10.066;2023-04-03T01:10:17;1.60;99.90
8896;DHT22;4484;48.928;10.066;2023-04-03T01:12:50;1.60;99.90
8896;DHT22;4484;48.928;10.066;2023-04-03T01:15:25;1.60;99.90
8896;DHT22;4484;48.928;10.066;2023-04-03T01:17:54;1.60;99.90
8896;DHT22;4484;48.928;10.066;2023-04-03T01:28:05;1.60;99.90
8896;DHT22;4484;48.928;10.066;2023-04-03T01:30:43;1.60;99.90
8896;DHT22;4484;48.928;10.066;2023-04-03T01:33:11;1.60;99.90
8896;DHT22;4484;48.928;10.066;2023-04-03T01:35:38;1.60;99.90
8896;DHT22;4484;48.928;10.066;2023-04-03T01:38:05;1.60;99.90
8896;DHT22;4484;48.928;10.066;2023-04-03T01:40:33;1.60;99.90
8896;DHT22;4484;48.928;10.066;2023-04-03T01:43:00;1.60;99.90
8896;DHT22;4484;48.928;10.066;2023-04-03T01:45:27;1.60;99.90
8896;DHT22;4484;48.928;10.066;2023-04-03T01:47:54;1.60;99.90
8896;DHT22;4484;48.928;10.066;2023-04-03T01:50:23;1.60;99.90
8896;DHT22;4484;48.928;10.066;2023-04-03T01:52:50;1.60;99.90
8896;DHT22;4484;48.928;10.066;2023-04-03T01:55:17;1.50;99.90
8896;DHT22;4484;48.928;10.066;2023-04-03T01:57:44;1.50;99.90
8896;DHT22;4484;48.928;10.066;2023-04-03T02:00:11;1.50;99.90
8896;DHT22;4484;48.928;10.066;2023-04-03T02:02:40;1.50;99.90
8896;DHT22;4484;48.928;10.066;2023-04-03T02:05:07;1.50;99.90
8896;DHT22;4484;48.928;10.066;2023-04-03T02:07:34;1.50;99.90
8896;DHT22;4484;48.928;10.066;2023-04-03T02:10:01;1.50;99.90
8896;DHT22;4484;48.928;10.066;2023-04-03T02:12:28;1.60;99.90
8896;DHT22;4484;48.928;10.066;2023-04-03T02:14:54;1.50;99.90
8896;DHT22;4484;48.928;10.066;2023-04-03T02:17:21;1.50;99.90
8896;DHT22;4484;48.928;10.066;2023-04-03T02:19:48;1.50;99.90
8896;DHT22;4484;48.928;10.066;2023-04-03T02:22:15;1.50;99.90
8896;DHT22;4484;48.928;10.066;2023-04-03T02:24:42;1.50;99.90
8896;DHT22;4484;48.928;10.066;2023-04-03T02:27:09;1.50;99.90
8896;DHT22;4484;48.928;10.066;2023-04-03T02:29:36;1.50;99.90
8896;DHT22;4484;48.928;10.066;2023-04-03T02:32:04;1.50;99.90
8896;DHT22;4484;48.928;10.066;2023-04-03T02:34:32;1.50;99.90
8896;DHT22;4484;48.928;10.066;2023-04-03T02:37:00;1.50;99.90
8896;DHT22;4484;48.928;10.066;2023-04-03T02:39:27;1.50;99.90
8896;DHT22;4484;48.928;10.066;2023-04-03T02:41:56;1.50;99.90
8896;DHT22;4484;48.928;10.066;2023-04-03T02:44:24;1.50;99.90
8896;DHT22;4484;48.928;10.066;2023-04-03T02:46:52;1.50;99.90
8896;DHT22;4484;48.928;10.066;2023-04-03T02:49:19;1.50;99.90
8896;DHT22;4484;48.928;10.066;2023-04-03T02:51:46;1.40;99.90
8896;DHT22;4484;48.928;10.066;2023-04-03T02:54:14;1.50;99.90
8896;DHT22;4484;48.928;10.066;2023-04-03T02:56:45;1.40;99.90
8896;DHT22;4484;48.928;10.066;2023-04-03T02:59:12;1.40;99.90
8896;DHT22;4484;48.928;10.066;2023-04-03T03:01:40;1.40;99.90
8896;DHT22;4484;48.928;10.066;2023-04-03T03:04:07;1.40;99.90
8896;DHT22;4484;48.928;10.066;2023-04-03T03:06:33;1.40;99.90
8896;DHT22;4484;48.928;10.066;2023-04-03T03:09:00;1.40;99.90
8896;DHT22;4484;48.928;10.066;2023-04-03T03:11:27;1.30;99.90
8896;DHT22;4484;48.928;10.066;2023-04-03T03:13:54;1.30;99.90
8896;DHT22;4484;48.928;10.066;2023-04-03T03:16:23;1.30;99.90
8896;DHT22;4484;48.928;10.066;2023-04-03T03:18:50;1.30;99.90
8896;DHT22;4484;48.928;10.066;2023-04-03T03:21:17;1.30;99.90
8896;DHT22;4484;48.928;10.066;2023-04-03T03:23:44;1.30;99.90
8896;DHT22;4484;48.928;10.066;2023-04-03T03:26:11;1.30;99.90
8896;DHT22;4484;48.928;10.066;2023-04-03T03:28:39;1.30;99.90
8896;DHT22;4484;48.928;10.066;2023-04-03T03:31:06;1.20;99.90
8896;DHT22;4484;48.928;10.066;2023-04-03T03:33:36;1.30;99.90
8896;DHT22;4484;48.928;10.066;2023-04-03T03:36:03;1.30;99.90
8896;DHT22;4484;48.928;10.066;2023-04-03T03:38:30;1.20;99.90
8896;DHT22;4484;48.928;10.066;2023-04-03T03:40:58;1.20;99.90
8896;DHT22;4484;48.928;10.066;2023-04-03T03:43:27;1.20;99.90
8896;DHT22;4484;48.928;10.066;2023-04-03T03:45:54;1.20;99.90
8896;DHT22;4484;48.928;10.066;2023-04-03T03:48:23;1.20;99.90
8896;DHT22;4484;48.928;10.066;2023-04-03T03:50:50;1.20;99.90
8896;DHT22;4484;48.928;10.066;2023-04-03T03:53:19;1.10;99.90
8896;DHT22;4484;48.928;10.066;2023-04-03T03:55:48;1.10;99.90
8896;DHT22;4484;48.928;10.066;2023-04-03T03:58:16;1.10;99.90
8896;DHT22;4484;48.928;10.066;2023-04-03T04:00:44;1.10;99.90
8896;DHT22;4484;48.928;10.066;2023-04-03T04:03:11;1.00;99.90
8896;DHT22;4484;48.928;10.066;2023-04-03T04:05:39;1.00;99.90
8896;DHT22;4484;48.928;10.066;2023-04-03T04:08:06;0.90;99.90
8896;DHT22;4484;48.928;10.066;2023-04-03T04:10:34;0.80;99.90
8896;DHT22;4484;48.928;10.066;2023-04-03T04:13:01;0.70;99.90
8896;DHT22;4484;48.928;10.066;2023-04-03T04:15:28;0.70;99.90
8896;DHT22;4484;48.928;10.066;2023-04-03T04:17:56;0.60;99.90
8896;DHT22;4484;48.928;10.066;2023-04-03T04:20:24;0.60;99.90
8896;DHT22;4484;48.928;10.066;2023-04-03T04:22:52;0.50;99.90
8896;DHT22;4484;48.928;10.066;2023-04-03T04:25:20;0.40;99.90
8896;DHT22;4484;48.928;10.066;2023-04-03T04:27:46;0.40;99.90
8896;DHT22;4484;48.928;10.066;2023-04-03T04:30:14;0.40;99.90
8896;DHT22;4484;48.928;10.066;2023-04-03T04:32:43;0.40;99.90
8896;DHT22;4484;48.928;10.066;2023-04-03T04:35:10;0.30;99.90
8896;DHT22;4484;48.928;10.066;2023-04-03T04:37:42;0.30;99.90
8896;DHT22;4484;48.928;10.066;2023-04-03T04:40:10;0.30;99.90
8896;DHT22;4484;48.928;10.066;2023-04-03T04:42:37;0.30;99.90
8896;DHT22;4484;48.928;10.066;2023-04-03T04:45:05;0.30;99.90
8896;DHT22;4484;48.928;10.066;2023-04-03T04:47:32;0.30;99.90
8896;DHT22;4484;48.928;10.066;2023-04-03T04:49:59;0.30;99.90
8896;DHT22;4484;48.928;10.066;2023-04-03T04:52:26;0.40;99.90
8896;DHT22;4484;48.928;10.066;2023-04-03T04:54:54;0.40;99.90
8896;DHT22;4484;48.928;10.066;2023-04-03T04:57:21;0.40;99.90
8896;DHT22;4484;48.928;10.066;2023-04-03T04:59:48;0.40;99.90
8896;DHT22;4484;48.928;10.066;2023-04-03T05:02:15;0.40;99.90
8896;DHT22;4484;48.928;10.066;2023-04-03T05:04:44;0.40;99.90
8896;DHT22;4484;48.928;10.066;2023-04-03T05:07:17;0.40;99.90
8896;DHT22;4484;48.928;10.066;2023-04-03T05:09:44;0.50;99.90
8896;DHT22;4484;48.928;10.066;2023-04-03T05:12:12;0.50;99.90
8896;DHT22;4484;48.928;10.066;2023-04-03T05:14:46;0.50;99.90
8896;DHT22;4484;48.928;10.066;2023-04-03T05:17:14;0.50;99.90
8896;DHT22;4484;48.928;10.066;2023-04-03T05:19:45;0.50;99.90
8896;DHT22;4484;48.928;10.066;2023-04-03T05:22:13;0.50;99.90
8896;DHT22;4484;48.928;10.066;2023-04-03T05:24:41;0.50;99.90
8896;DHT22;4484;48.928;10.066;2023-04-03T05:27:08;0.50;99.90
8896;DHT22;4484;48.928;10.066;2023-04-03T05:29:39;0.50;99.90
8896;DHT22;4484;48.928;10.066;2023-04-03T05:32:13;0.60;99.90
8896;DHT22;4484;48.928;10.066;2023-04-03T05:34:40;0.60;99.90
8896;DHT22;4484;48.928;10.066;2023-04-03T05:37:07;0.60;99.90
8896;DHT22;4484;48.928;10.066;2023-04-03T05:39:35;0.60;99.90
8896;DHT22;4484;48.928;10.066;2023-04-03T05:42:03;0.70;99.90
8896;DHT22;4484;48.928;10.066;2023-04-03T05:44:30;0.70;99.90
8896;DHT22;4484;48.928;10.066;2023-04-03T05:46:57;0.70;99.90
8896;DHT22;4484;48.928;10.066;2023-04-03T05:49:24;0.70;99.90
8896;DHT22;4484;48.928;10.066;2023-04-03T05:51:51;0.70;99.90
8896;DHT22;4484;48.928;10.066;2023-04-03T05:54:28;0.80;99.90
8896;DHT22;4484;48.928;10.066;2023-04-03T05:57:05;0.80;99.90
8896;DHT22;4484;48.928;10.066;2023-04-03T05:59:32;0.90;99.90
8896;DHT22;4484;48.928;10.066;2023-04-03T06:01:59;0.90;99.90
8896;DHT22;4484;48.928;10.066;2023-04-03T06:04:27;0.90;99.90
8896;DHT22;4484;48.928;10.066;2023-04-03T06:06:57;1.00;99.90
8896;DHT22;4484;48.928;10.066;2023-04-03T06:09:27;1.10;99.90
8896;DHT22;4484;48.928;10.066;2023-04-03T06:11:55;1.10;99.90
8896;DHT22;4484;48.928;10.066;2023-04-03T06:14:26;1.20;99.90
8896;DHT22;4484;48.928;10.066;2023-04-03T06:16:53;1.20;99.90
8896;DHT22;4484;48.928;10.066;2023-04-03T06:19:21;1.20;99.90
8896;DHT22;4484;48.928;10.066;2023-04-03T06:21:51;1.30;99.90
8896;DHT22;4484;48.928;10.066;2023-04-03T06:24:19;1.40;99.90
8896;DHT22;4484;48.928;10.066;2023-04-03T06:26:48;1.40;99.90
8896;DHT22;4484;48.928;10.066;2023-04-03T06:29:16;1.60;99.90
8896;DHT22;4484;48.928;10.066;2023-04-03T06:31:43;1.70;99.90
8896;DHT22;4484;48.928;10.066;2023-04-03T06:34:10;1.70;99.90
8896;DHT22;4484;48.928;10.066;2023-04-03T06:36:39;1.90;99.90
8896;DHT22;4484;48.928;10.066;2023-04-03T06:39:06;1.90;99.90
8896;DHT22;4484;48.928;10.066;2023-04-03T06:41:33;1.90;99.90
8896;DHT22;4484;48.928;10.066;2023-04-03T06:44:02;2.00;99.90
8896;DHT22;4484;48.928;10.066;2023-04-03T06:46:30;2.10;99.90
8896;DHT22;4484;48.928;10.066;2023-04-03T06:48:57;2.10;99.90
8896;DHT22;4484;48.928;10.066;2023-04-03T06:51:29;2.20;99.90
8896;DHT22;4484;48.928;10.066;2023-04-03T06:53:58;2.20;99.90
8896;DHT22;4484;48.928;10.066;2023-04-03T06:56:26;2.20;99.90
8896;DHT22;4484;48.928;10.066;2023-04-03T06:58:54;2.30;99.90
8896;DHT22;4484;48.928;10.066;2023-04-03T07:01:26;2.30;99.90
8896;DHT22;4484;48.928;10.066;2023-04-03T07:03:55;2.40;99.90
8896;DHT22;4484;48.928;10.066;2023-04-03T07:06:22;2.50;99.90
8896;DHT22;4484;48.928;10.066;2023-04-03T07:08:49;2.60;99.90
8896;DHT22;4484;48.928;10.066;2023-04-03T07:11:16;2.70;99.90
8896;DHT22;4484;48.928;10.066;2023-04-03T07:13:43;2.80;99.90
8896;DHT22;4484;48.928;10.066;2023-04-03T07:16:10;3.00;99.90
8896;DHT22;4484;48.928;10.066;2023-04-03T07:18:37;3.10;99.90
8896;DHT22;4484;48.928;10.066;2023-04-03T07:21:04;3.30;99.90
8896;DHT22;4484;48.928;10.066;2023-04-03T07:23:31;3.30;99.90
8896;DHT22;4484;48.928;10.066;2023-04-03T07:25:58;3.40;99.90
8896;DHT22;4484;48.928;10.066;2023-04-03T07:28:25;3.50;99.90
8896;DHT22;4484;48.928;10.066;2023-04-03T07:30:59;3.50;99.90
8896;DHT22;4484;48.928;10.066;2023-04-03T07:33:26;3.50;99.90
8896;DHT22;4484;48.928;10.066;2023-04-03T07:35:53;3.60;99.90
8896;DHT22;4484;48.928;10.066;2023-04-03T07:38:20;3.70;99.90
8896;DHT22;4484;48.928;10.066;2023-04-03T07:40:48;3.80;99.90
8896;DHT22;4484;48.928;10.066;2023-04-03T07:43:17;3.80;99.90
8896;DHT22;4484;48.928;10.066;2023-04-03T07:45:44;3.80;99.90
8896;DHT22;4484;48.928;10.066;2023-04-03T07:48:12;3.80;99.90
8896;DHT22;4484;48.928;10.066;2023-04-03T07:50:42;3.90;99.90
8896;DHT22;4484;48.928;10.066;2023-04-03T07:53:09;3.90;99.90
8896;DHT22;4484;48.928;10.066;2023-04-03T07:55:37;4.10;99.90
8896;DHT22;4484;48.928;10.066;2023-04-03T07:58:10;4.10;99.90
8896;DHT22;4484;48.928;10.066;2023-04-03T08:00:38;4.20;99.90
8896;DHT22;4484;48.928;10.066;2023-04-03T08:03:06;4.30;99.90
8896;DHT22;4484;48.928;10.066;2023-04-03T08:05:37;4.30;99.90
8896;DHT22;4484;48.928;10.066;2023-04-03T08:08:05;4.30;99.90
8896;DHT22;4484;48.928;10.066;2023-04-03T08:10:33;4.20;99.90
8896;DHT22;4484;48.928;10.066;2023-04-03T08:13:01;4.20;99.90
8896;DHT22;4484;48.928;10.066;2023-04-03T08:15:30;4.30;99.90
8896;DHT22;4484;48.928;10.066;2023-04-03T08:17:58;4.30;99.90
8896;DHT22;4484;48.928;10.066;2023-04-03T08:20:25;4.40;99.90
8896;DHT22;4484;48.928;10.066;2023-04-03T08:22:52;4.40;99.90
8896;DHT22;4484;48.928;10.066;2023-04-03T08:25:19;4.40;99.90
8896;DHT22;4484;48.928;10.066;2023-04-03T08:27:46;4.50;99.90
8896;DHT22;4484;48.928;10.066;2023-04-03T08:30:13;4.70;99.90
8896;DHT22;4484;48.928;10.066;2023-04-03T08:32:40;4.70;99.90
8896;DHT22;4484;48.928;10.066;2023-04-03T08:35:10;4.70;99.90
8896;DHT22;4484;48.928;10.066;2023-04-03T08:37:38;4.80;99.90
8896;DHT22;4484;48.928;10.066;2023-04-03T08:40:07;5.00;99.90
8896;DHT22;4484;48.928;10.066;2023-04-03T08:45:22;5.10;99.90
8896;DHT22;4484;48.928;10.066;2023-04-03T08:48:05;5.20;99.90
8896;DHT22;4484;48.928;10.066;2023-04-03T08:50:41;5.30;99.90
8896;DHT22;4484;48.928;10.066;2023-04-03T08:53:31;5.20;99.90
8896;DHT22;4484;48.928;10.066;2023-04-03T08:56:04;5.20;99.90
8896;DHT22;4484;48.928;10.066;2023-04-03T09:01:21;5.40;99.90
8896;DHT22;4484;48.928;10.066;2023-04-03T09:03:49;5.50;99.90
8896;DHT22;4484;48.928;10.066;2023-04-03T09:06:21;5.60;99.90
8896;DHT22;4484;48.928;10.066;2023-04-03T09:09:13;5.80;99.90
8896;DHT22;4484;48.928;10.066;2023-04-03T09:11:57;5.90;99.90
8896;DHT22;4484;48.928;10.066;2023-04-03T09:14:34;6.10;99.90
8896;DHT22;4484;48.928;10.066;2023-04-03T09:20:04;6.30;99.90
8896;DHT22;4484;48.928;10.066;2023-04-03T09:22:33;6.50;99.90
8896;DHT22;4484;48.928;10.066;2023-04-03T09:25:18;6.70;99.90
8896;DHT22;4484;48.928;10.066;2023-04-03T09:27:46;6.70;99.90
8896;DHT22;4484;48.928;10.066;2023-04-03T09:30:15;6.80;99.90
8896;DHT22;4484;48.928;10.066;2023-04-03T09:32:45;6.90;99.90
8896;DHT22;4484;48.928;10.066;2023-04-03T09:35:31;7.10;99.90
8896;DHT22;4484;48.928;10.066;2023-04-03T09:38:15;7.30;99.90
8896;DHT22;4484;48.928;10.066;2023-04-03T09:40:48;7.40;99.90
8896;DHT22;4484;48.928;10.066;2023-04-03T09:45:48;7.50;99.90
8896;DHT22;4484;48.928;10.066;2023-04-03T09:48:17;7.50;99.90
8896;DHT22;4484;48.928;10.066;2023-04-03T09:53:38;7.50;99.90
8896;DHT22;4484;48.928;10.066;2023-04-03T09:56:34;7.30;99.90
8896;DHT22;4484;48.928;10.066;2023-04-03T10:01:38;7.10;99.90
8896;DHT22;4484;48.928;10.066;2023-04-03T10:04:17;7.20;99.90
8896;DHT22;4484;48.928;10.066;2023-04-03T10:06:53;7.30;99.90
8896;DHT22;4484;48.928;10.066;2023-04-03T10:09:27;7.40;99.90
8896;DHT22;4484;48.928;10.066;2023-04-03T10:14:29;7.40;99.90
8896;DHT22;4484;48.928;10.066;2023-04-03T10:24:38;6.70;99.90
8896;DHT22;4484;48.928;10.066;2023-04-03T10:30:28;6.40;99.90
8896;DHT22;4484;48.928;10.066;2023-04-03T10:42:11;6.30;99.90
8896;DHT22;4484;48.928;10.066;2023-04-03T10:47:57;6.30;99.90
8896;DHT22;4484;48.928;10.066;2023-04-03T10:53:13;6.20;99.90
8896;DHT22;4484;48.928;10.066;2023-04-03T10:58:36;5.90;99.90
8896;DHT22;4484;48.928;10.066;2023-04-03T11:01:16;5.90;99.90
8896;DHT22;4484;48.928;10.066;2023-04-03T11:03:45;6.00;99.90
8896;DHT22;4484;48.928;10.066;2023-04-03T11:06:15;6.10;99.90
8896;DHT22;4484;48.928;10.066;2023-04-03T11:09:05;6.30;99.90
8896;DHT22;4484;48.928;10.066;2023-04-03T11:11:36;6.50;99.90
8896;DHT22;4484;48.928;10.066;2023-04-03T11:14:26;6.40;99.90
8896;DHT22;4484;48.928;10.066;2023-04-03T11:17:04;6.50;99.90
8896;DHT22;4484;48.928;10.066;2023-04-03T11:19:37;6.60;99.90
8896;DHT22;4484;48.928;10.066;2023-04-03T11:22:36;6.60;99.90
8896;DHT22;4484;48.928;10.066;2023-04-03T11:31:02;6.50;99.90
8896;DHT22;4484;48.928;10.066;2023-04-03T11:36:32;6.40;99.90
8896;DHT22;4484;48.928;10.066;2023-04-03T11:39:23;6.50;99.90
8896;DHT22;4484;48.928;10.066;2023-04-03T11:41:52;6.60;99.90
8896;DHT22;4484;48.928;10.066;2023-04-03T11:44:38;6.40;99.90
8896;DHT22;4484;48.928;10.066;2023-04-03T11:47:08;6.30;99.90
8896;DHT22;4484;48.928;10.066;2023-04-03T11:49:55;6.20;99.90
8896;DHT22;4484;48.928;10.066;2023-04-03T12:32:17;7.40;99.90
8896;DHT22;4484;48.928;10.066;2023-04-03T12:40:47;7.30;99.90
8896;DHT22;4484;48.928;10.066;2023-04-03T12:43:48;7.10;99.90
8896;DHT22;4484;48.928;10.066;2023-04-03T12:46:24;6.80;99.90
8896;DHT22;4484;48.928;10.066;2023-04-03T12:48:59;6.60;99.90
8896;DHT22;4484;48.928;10.066;2023-04-03T12:54:12;6.30;99.90
8896;DHT22;4484;48.928;10.066;2023-04-03T12:56:40;6.30;99.90
8896;DHT22;4484;48.928;10.066;2023-04-03T13:01:44;6.40;99.90
8896;DHT22;4484;48.928;10.066;2023-04-03T13:04:19;6.60;99.90
8896;DHT22;4484;48.928;10.066;2023-04-03T13:06:46;6.80;99.90
8896;DHT22;4484;48.928;10.066;2023-04-03T13:12:03;7.20;99.90
8896;DHT22;4484;48.928;10.066;2023-04-03T13:14:34;7.30;99.90
8896;DHT22;4484;48.928;10.066;2023-04-03T13:17:15;7.30;99.90
8896;DHT22;4484;48.928;10.066;2023-04-03T13:19:44;7.40;99.90
8896;DHT22;4484;48.928;10.066;2023-04-03T13:22:27;7.40;96.40
8896;DHT22;4484;48.928;10.066;2023-04-03T13:24:59;7.30;97.10
8896;DHT22;4484;48.928;10.066;2023-04-03T13:27:31;7.40;99.10
8896;DHT22;4484;48.928;10.066;2023-04-03T13:30:00;7.50;99.10
8896;DHT22;4484;48.928;10.066;2023-04-03T13:32:28;7.60;98.80
8896;DHT22;4484;48.928;10.066;2023-04-03T13:34:56;7.60;98.60
8896;DHT22;4484;48.928;10.066;2023-04-03T13:37:33;7.70;98.40
8896;DHT22;4484;48.928;10.066;2023-04-03T13:42:35;7.50;95.00
8896;DHT22;4484;48.928;10.066;2023-04-03T13:47:45;7.60;98.40
8896;DHT22;4484;48.928;10.066;2023-04-03T13:50:14;7.80;93.60
8896;DHT22;4484;48.928;10.066;2023-04-03T13:52:53;7.80;91.40
8896;DHT22;4484;48.928;10.066;2023-04-03T13:57:58;7.70;95.90
8896;DHT22;4484;48.928;10.066;2023-04-03T14:00:33;7.70;96.80
8896;DHT22;4484;48.928;10.066;2023-04-03T14:03:00;7.70;98.50
8896;DHT22;4484;48.928;10.066;2023-04-03T14:05:27;7.60;97.40
8896;DHT22;4484;48.928;10.066;2023-04-03T14:07:55;7.40;96.80
8896;DHT22;4484;48.928;10.066;2023-04-03T14:10:22;7.30;98.40
8896;DHT22;4484;48.928;10.066;2023-04-03T14:12:49;7.30;98.00
8896;DHT22;4484;48.928;10.066;2023-04-03T14:15:24;7.30;97.60
8896;DHT22;4484;48.928;10.066;2023-04-03T14:17:52;7.30;99.90
8896;DHT22;4484;48.928;10.066;2023-04-03T14:20:22;7.30;98.50
8896;DHT22;4484;48.928;10.066;2023-04-03T14:22:50;7.20;97.00
8896;DHT22;4484;48.928;10.066;2023-04-03T14:25:19;7.20;97.00
8896;DHT22;4484;48.928;10.066;2023-04-03T14:27:49;7.40;98.20
8896;DHT22;4484;48.928;10.066;2023-04-03T14:30:32;7.80;97.80
8896;DHT22;4484;48.928;10.066;2023-04-03T14:33:00;8.40;97.00
8896;DHT22;4484;48.928;10.066;2023-04-03T14:35:27;8.80;91.30
8896;DHT22;4484;48.928;10.066;2023-04-03T14:37:54;9.20;93.80
8896;DHT22;4484;48.928;10.066;2023-04-03T14:40:26;9.20;90.00
8896;DHT22;4484;48.928;10.066;2023-04-03T14:42:53;9.00;94.10
8896;DHT22;4484;48.928;10.066;2023-04-03T14:45:22;8.70;93.20
8896;DHT22;4484;48.928;10.066;2023-04-03T14:47:51;8.40;93.00
8896;DHT22;4484;48.928;10.066;2023-04-03T14:50:22;7.90;94.00
8896;DHT22;4484;48.928;10.066;2023-04-03T14:52:52;7.90;94.80
8896;DHT22;4484;48.928;10.066;2023-04-03T14:55:23;8.10;94.10
8896;DHT22;4484;48.928;10.066;2023-04-03T14:57:50;8.30;94.40
8896;DHT22;4484;48.928;10.066;2023-04-03T15:00:20;8.40;92.60
8896;DHT22;4484;48.928;10.066;2023-04-03T15:02:48;8.60;90.80
8896;DHT22;4484;48.928;10.066;2023-04-03T15:05:15;8.80;93.00
8896;DHT22;4484;48.928;10.066;2023-04-03T15:07:47;9.10;92.90
8896;DHT22;4484;48.928;10.066;2023-04-03T15:10:26;9.30;95.00
8896;DHT22;4484;48.928;10.066;2023-04-03T15:12:54;9.50;93.20
8896;DHT22;4484;48.928;10.066;2023-04-03T15:15:23;9.20;91.20
8896;DHT22;4484;48.928;10.066;2023-04-03T15:17:53;8.80;92.40
8896;DHT22;4484;48.928;10.066;2023-04-03T15:20:23;8.60;94.30
8896;DHT22;4484;48.928;10.066;2023-04-03T15:22:50;8.30;95.00
8896;DHT22;4484;48.928;10.066;2023-04-03T15:25:17;8.10;93.70
8896;DHT22;4484;48.928;10.066;2023-04-03T15:27:44;7.90;95.30
8896;DHT22;4484;48.928;10.066;2023-04-03T15:30:15;7.80;95.50
8896;DHT22;4484;48.928;10.066;2023-04-03T15:32:42;7.60;93.40
8896;DHT22;4484;48.928;10.066;2023-04-03T15:35:09;7.40;93.30
8896;DHT22;4484;48.928;10.066;2023-04-03T15:37:36;7.50;95.70
8896;DHT22;4484;48.928;10.066;2023-04-03T15:40:04;7.40;97.10
8896;DHT22;4484;48.928;10.066;2023-04-03T15:42:31;7.40;96.80
8896;DHT22;4484;48.928;10.066;2023-04-03T15:44:58;7.40;95.60
8896;DHT22;4484;48.928;10.066;2023-04-03T15:47:26;7.40;95.10
8896;DHT22;4484;48.928;10.066;2023-04-03T15:49:54;7.40;95.40
8896;DHT22;4484;48.928;10.066;2023-04-03T15:52:22;7.60;94.60
8896;DHT22;4484;48.928;10.066;2023-04-03T15:54:49;7.70;92.90
8896;DHT22;4484;48.928;10.066;2023-04-03T15:57:16;7.60;91.50
8896;DHT22;4484;48.928;10.066;2023-04-03T15:59:43;7.50;93.70
8896;DHT22;4484;48.928;10.066;2023-04-03T16:02:10;7.50;93.80
8896;DHT22;4484;48.928;10.066;2023-04-03T16:04:40;7.30;94.50
8896;DHT22;4484;48.928;10.066;2023-04-03T16:07:07;7.20;93.80
8896;DHT22;4484;48.928;10.066;2023-04-03T16:09:35;6.90;94.40
8896;DHT22;4484;48.928;10.066;2023-04-03T16:12:03;6.80;94.70
8896;DHT22;4484;48.928;10.066;2023-04-03T16:14:29;6.60;95.60
8896;DHT22;4484;48.928;10.066;2023-04-03T16:16:58;6.50;95.50
8896;DHT22;4484;48.928;10.066;2023-04-03T16:19:26;6.30;95.70
8896;DHT22;4484;48.928;10.066;2023-04-03T16:21:54;6.20;95.50
8896;DHT22;4484;48.928;10.066;2023-04-03T16:24:21;6.10;96.20
8896;DHT22;4484;48.928;10.066;2023-04-03T16:26:48;6.00;95.60
8896;DHT22;4484;48.928;10.066;2023-04-03T16:29:15;5.80;95.40
8896;DHT22;4484;48.928;10.066;2023-04-03T16:31:42;5.70;95.60
8896;DHT22;4484;48.928;10.066;2023-04-03T16:34:09;5.60;95.30
8896;DHT22;4484;48.928;10.066;2023-04-03T16:36:36;5.50;96.60
8896;DHT22;4484;48.928;10.066;2023-04-03T16:39:04;5.50;97.70
8896;DHT22;4484;48.928;10.066;2023-04-03T16:41:31;5.50;98.70
8896;DHT22;4484;48.928;10.066;2023-04-03T16:43:58;5.60;99.90
8896;DHT22;4484;48.928;10.066;2023-04-03T16:46:25;5.70;99.90
8896;DHT22;4484;48.928;10.066;2023-04-03T16:48:52;5.70;99.90
8896;DHT22;4484;48.928;10.066;2023-04-03T16:51:19;5.70;99.90
8896;DHT22;4484;48.928;10.066;2023-04-03T16:53:46;5.80;99.90
8896;DHT22;4484;48.928;10.066;2023-04-03T16:56:12;5.80;99.90
8896;DHT22;4484;48.928;10.066;2023-04-03T16:58:39;5.80;99.90
8896;DHT22;4484;48.928;10.066;2023-04-03T17:01:12;5.70;99.80
8896;DHT22;4484;48.928;10.066;2023-04-03T17:03:39;5.70;99.90
8896;DHT22;4484;48.928;10.066;2023-04-03T17:06:07;5.60;98.00
8896;DHT22;4484;48.928;10.066;2023-04-03T17:08:34;5.50;97.10
8896;DHT22;4484;48.928;10.066;2023-04-03T17:11:01;5.40;98.00
8896;DHT22;4484;48.928;10.066;2023-04-03T17:13:28;5.30;97.80
8896;DHT22;4484;48.928;10.066;2023-04-03T17:15:58;5.20;98.90
8896;DHT22;4484;48.928;10.066;2023-04-03T17:18:26;5.10;99.90
8896;DHT22;4484;48.928;10.066;2023-04-03T17:20:55;5.10;99.40
8896;DHT22;4484;48.928;10.066;2023-04-03T17:23:24;5.00;99.90
8896;DHT22;4484;48.928;10.066;2023-04-03T17:25:51;4.90;99.80
8896;DHT22;4484;48.928;10.066;2023-04-03T17:28:21;4.80;99.90
8896;DHT22;4484;48.928;10.066;2023-04-03T17:30:54;4.70;99.50
8896;DHT22;4484;48.928;10.066;2023-04-03T17:33:22;4.60;99.60
8896;DHT22;4484;48.928;10.066;2023-04-03T17:35:49;4.50;99.20
8896;DHT22;4484;48.928;10.066;2023-04-03T17:38:15;4.40;99.80
8896;DHT22;4484;48.928;10.066;2023-04-03T17:40:43;4.30;99.90
8896;DHT22;4484;48.928;10.066;2023-04-03T17:43:11;4.20;99.90
8896;DHT22;4484;48.928;10.066;2023-04-03T17:45:38;4.10;99.90
8896;DHT22;4484;48.928;10.066;2023-04-03T17:48:05;4.00;99.90
8896;DHT22;4484;48.928;10.066;2023-04-03T17:50:32;4.00;99.90
8896;DHT22;4484;48.928;10.066;2023-04-03T17:52:59;4.00;99.90
8896;DHT22;4484;48.928;10.066;2023-04-03T17:55:25;4.00;99.90
8896;DHT22;4484;48.928;10.066;2023-04-03T17:57:52;3.90;99.90
8896;DHT22;4484;48.928;10.066;2023-04-03T18:00:19;3.80;99.90
8896;DHT22;4484;48.928;10.066;2023-04-03T18:02:46;3.80;99.90
8896;DHT22;4484;48.928;10.066;2023-04-03T18:05:13;3.80;99.90
8896;DHT22;4484;48.928;10.066;2023-04-03T18:07:40;3.70;99.90
8896;DHT22;4484;48.928;10.066;2023-04-03T18:10:07;3.70;99.90
8896;DHT22;4484;48.928;10.066;2023-04-03T18:12:35;3.60;99.90
8896;DHT22;4484;48.928;10.066;2023-04-03T18:15:03;3.50;99.90
8896;DHT22;4484;48.928;10.066;2023-04-03T18:17:31;3.50;99.90
8896;DHT22;4484;48.928;10.066;2023-04-03T18:19:58;3.30;99.90
8896;DHT22;4484;48.928;10.066;2023-04-03T18:22:24;3.30;99.90
8896;DHT22;4484;48.928;10.066;2023-04-03T18:24:52;3.20;99.90